Time;durP1;ratioP1;P1;durP2;ratioP2;P2;SDS_P1;SDS_P2;PMS_P1;PMS_P2;Temp;Humidity;BMP_temperature;BMP_pressure;BME280_temperature;BME280_humidity;BME280_pressure;Samples;Min_cycle;Max_cycle;Signal;HPM_P1;HPM_P2
2023/05/18 00:00:09;;;;;;;4.20;2.10;;;;;;;5.95;100.00;102957.19;4973659;28;20052;-83
2023/05/18 00:02:53;;;;;;;4.32;2.42;;;;;;;5.92;100.00;102954.50;4986252;28;20192;-82
2023/05/18 00:05:37;;;;;;;4.47;2.20;;;;;;;5.90;100.00;102957.16;4971547;28;20076;-82
2023/05/18 00:08:21;;;;;;;6.68;2.40;;;;;;;5.86;100.00;102950.09;4970354;28;20085;-83
2023/05/18 00:11:05;;;;;;;7.00;2.60;;;;;;;5.82;100.00;102951.81;4999926;28;20458;-84
2023/05/18 00:13:49;;;;;;;6.63;2.47;;;;;;;5.80;100.00;102953.56;4997811;28;20113;-84
2023/05/18 00:16:34;;;;;;;4.43;2.30;;;;;;;5.76;100.00;102949.13;4986016;28;20635;-84
2023/05/18 00:19:19;;;;;;;6.70;2.38;;;;;;;5.75;100.00;102950.00;5000079;28;20523;-83
2023/05/18 00:22:06;;;;;;;4.68;2.42;;;;;;;5.76;100.00;102951.75;4981456;28;20101;-82
2023/05/18 00:24:50;;;;;;;3.88;1.90;;;;;;;5.73;100.00;102951.75;4984128;28;20093;-82
2023/05/18 00:27:34;;;;;;;7.90;3.22;;;;;;;5.73;100.00;102956.09;4985695;28;20057;-83
2023/05/18 00:30:23;;;;;;;8.30;2.88;;;;;;;5.70;100.00;102943.81;4982760;28;20065;-83
2023/05/18 00:33:07;;;;;;;9.18;3.67;;;;;;;5.69;100.00;102948.22;4997767;28;20188;-83
2023/05/18 00:35:51;;;;;;;4.93;3.05;;;;;;;5.67;100.00;102952.56;4984203;28;21074;-81
2023/05/18 00:38:35;;;;;;;7.35;3.00;;;;;;;5.60;100.00;102947.25;4984381;28;20425;-82
2023/05/18 00:41:20;;;;;;;5.03;2.30;;;;;;;5.57;100.00;102956.84;5000618;28;20503;-81
2023/05/18 00:44:04;;;;;;;7.68;2.70;;;;;;;5.57;100.00;102959.47;4995425;28;20203;-81
2023/05/18 00:46:49;;;;;;;4.40;2.30;;;;;;;5.60;100.00;102956.00;4996899;28;20958;-82
2023/05/18 00:49:35;;;;;;;6.03;2.22;;;;;;;5.62;100.00;102950.75;4970069;28;20053;-83
2023/05/18 00:52:20;;;;;;;5.45;2.83;;;;;;;5.63;100.00;102953.41;4986601;28;20052;-82
2023/05/18 00:55:08;;;;;;;6.78;2.42;;;;;;;5.63;100.00;102955.16;4982765;28;20048;-82
2023/05/18 00:57:55;;;;;;;4.32;2.20;;;;;;;5.63;100.00;102955.16;4981845;28;20056;-82
2023/05/18 01:00:39;;;;;;;7.03;2.60;;;;;;;5.62;100.00;102949.00;4985851;28;20052;-82
2023/05/18 01:03:25;;;;;;;7.97;2.60;;;;;;;5.62;100.00;102949.00;4999331;28;20505;-83
2023/05/18 01:06:09;;;;;;;6.72;1.95;;;;;;;5.65;100.00;102948.16;4994039;28;20259;-83
2023/05/18 01:08:54;;;;;;;5.38;1.90;;;;;;;5.69;100.00;102952.56;4982317;28;20057;-83
2023/05/18 01:12:04;;;;;;;4.68;2.17;;;;;;;5.73;100.00;102948.22;4978765;28;20140;-84
2023/05/18 01:15:02;;;;;;;4.13;1.70;;;;;;;5.75;100.00;102944.75;4995513;28;20057;-83
2023/05/18 01:18:15;;;;;;;5.25;2.10;;;;;;;5.77;100.00;102948.25;4970298;28;20468;-83
2023/05/18 01:21:03;;;;;;;3.45;1.92;;;;;;;5.80;100.00;102953.56;4999559;28;21331;-83
2023/05/18 01:24:02;;;;;;;5.72;1.70;;;;;;;5.83;100.00;102948.31;4999224;28;21088;-83
2023/05/18 01:26:49;;;;;;;5.35;1.70;;;;;;;5.82;100.00;102946.56;4997933;28;20063;-83
2023/05/18 01:29:33;;;;;;;3.53;2.00;;;;;;;5.82;100.00;102941.28;4998348;28;20052;-82
2023/05/18 01:32:21;;;;;;;7.10;2.00;;;;;;;5.84;100.00;102938.69;5000794;28;20080;-83
2023/05/18 01:35:05;;;;;;;3.83;2.08;;;;;;;5.86;100.00;102942.19;4983923;28;20045;-83
2023/05/18 01:37:50;;;;;;;3.08;1.88;;;;;;;5.88;100.00;102948.34;4987015;28;20204;-83
2023/05/18 01:40:36;;;;;;;4.05;1.73;;;;;;;5.90;100.00;102948.38;4970485;28;20048;-83
2023/05/18 01:43:26;;;;;;;4.43;1.85;;;;;;;5.91;100.00;102943.13;4997360;28;20057;-83
2023/05/18 01:46:21;;;;;;;2.55;1.58;;;;;;;5.95;100.00;102944.88;4978376;28;20048;-82
2023/05/18 01:49:11;;;;;;;2.55;1.60;;;;;;;5.98;100.00;102949.28;4984057;28;20056;-83
2023/05/18 01:51:57;;;;;;;5.75;2.15;;;;;;;6.03;100.00;102949.34;4983235;28;20168;-82
2023/05/18 01:54:48;;;;;;;4.22;1.92;;;;;;;6.06;100.00;102952.88;4998169;28;20048;-82
2023/05/18 01:57:34;;;;;;;3.20;1.80;;;;;;;6.06;100.00;102959.91;4997954;28;20107;-82
2023/05/18 02:00:19;;;;;;;7.40;2.20;;;;;;;6.07;100.00;102957.31;4994921;28;20428;-82
2023/05/18 02:03:03;;;;;;;4.88;2.22;;;;;;;6.10;100.00;102957.31;4985318;28;20045;-83
2023/05/18 02:05:49;;;;;;;4.72;2.30;;;;;;;6.13;100.00;102956.47;4995577;28;20052;-82
2023/05/18 02:08:33;;;;;;;8.50;2.35;;;;;;;6.14;100.00;102957.34;5001331;28;20041;-84
2023/05/18 02:11:17;;;;;;;6.78;2.40;;;;;;;6.13;100.00;102955.56;4985745;28;20052;-83
2023/05/18 02:14:04;;;;;;;4.13;2.47;;;;;;;6.13;100.00;102951.19;4988818;28;20061;-83
2023/05/18 02:16:51;;;;;;;4.28;2.45;;;;;;;6.15;100.00;102953.84;4986226;28;20143;-82
2023/05/18 02:19:36;;;;;;;3.72;2.03;;;;;;;6.14;100.00;102957.34;5001168;28;20100;-83
2023/05/18 02:22:20;;;;;;;7.15;2.30;;;;;;;6.14;100.00;102955.59;4985378;28;20400;-84
2023/05/18 02:25:06;;;;;;;5.13;2.47;;;;;;;6.15;100.00;102953.84;5004068;28;20048;-84
2023/05/18 02:27:52;;;;;;;3.45;2.08;;;;;;;6.17;100.00;102954.72;4987237;28;20056;-85
2023/05/18 02:30:36;;;;;;;7.68;2.22;;;;;;;6.17;100.00;102952.09;5002410;28;20057;-82
2023/05/18 02:33:25;;;;;;;4.20;2.30;;;;;;;6.19;100.00;102951.25;4988061;28;20056;-84
2023/05/18 02:36:13;;;;;;;4.28;2.45;;;;;;;6.18;100.00;102945.97;4986946;28;20857;-84
2023/05/18 02:38:58;;;;;;;4.68;2.28;;;;;;;6.16;100.00;102945.09;5000447;28;20076;-84
2023/05/18 02:41:42;;;;;;;3.53;2.40;;;;;;;6.13;100.00;102945.03;4986157;28;20112;-83
2023/05/18 02:44:26;;;;;;;4.10;2.17;;;;;;;6.14;100.00;102942.44;4985566;28;20057;-83
2023/05/18 02:47:10;;;;;;;4.45;2.40;;;;;;;6.15;100.00;102951.22;5000047;28;20048;-83
2023/05/18 02:49:54;;;;;;;8.90;2.30;;;;;;;6.17;100.00;102952.09;4999676;28;20060;-83
2023/05/18 02:52:38;;;;;;;3.13;2.38;;;;;;;6.18;100.00;102954.75;4972633;28;20064;-83
2023/05/18 02:55:40;;;;;;;3.67;2.40;;;;;;;6.17;100.00;102955.63;4989134;28;20053;-83
2023/05/18 02:58:25;;;;;;;4.28;2.63;;;;;;;6.18;100.00;102953.84;4990025;28;20116;-82
2023/05/18 03:01:16;;;;;;;3.40;2.63;;;;;;;6.13;100.00;102958.19;5000029;28;20119;-82
2023/05/18 03:04:02;;;;;;;5.28;2.90;;;;;;;6.08;100.00;102952.91;4977294;28;20176;-83
2023/05/18 03:06:51;;;;;;;5.60;2.70;;;;;;;6.08;100.00;102959.06;5000675;28;20528;-84
2023/05/18 03:09:35;;;;;;;4.07;2.70;;;;;;;6.06;100.00;102963.41;5004948;28;20143;-84
2023/05/18 03:12:20;;;;;;;5.35;3.00;;;;;;;6.05;100.00;102961.66;4989360;28;20187;-83
2023/05/18 03:15:04;;;;;;;6.93;3.00;;;;;;;6.04;100.00;102965.16;5001577;28;20115;-83
2023/05/18 03:17:48;;;;;;;5.43;2.80;;;;;;;6.02;100.00;102964.28;5002633;28;20088;-84
2023/05/18 03:20:33;;;;;;;5.53;2.75;;;;;;;6.01;100.00;102962.50;5000629;28;20049;-84
2023/05/18 03:23:25;;;;;;;5.45;3.28;;;;;;;6.03;100.00;102959.88;4985463;28;20053;-84
2023/05/18 03:26:11;;;;;;;5.18;3.15;;;;;;;6.05;100.00;102958.16;5000447;28;20076;-84
2023/05/18 03:28:56;;;;;;;5.63;3.47;;;;;;;6.06;100.00;102971.31;4972118;28;20799;-83
2023/05/18 03:31:40;;;;;;;5.45;3.67;;;;;;;6.08;100.00;102964.31;5004334;28;20041;-84
2023/05/18 03:34:24;;;;;;;4.40;3.00;;;;;;;6.09;100.00;102963.44;4999466;28;20052;-83
2023/05/18 03:37:09;;;;;;;8.88;3.40;;;;;;;6.11;100.00;102963.47;4973213;28;20049;-83
2023/05/18 03:39:54;;;;;;;4.85;3.00;;;;;;;6.14;100.00;102973.13;5002364;28;20061;-83
2023/05/18 03:42:39;;;;;;;7.07;2.80;;;;;;;6.15;100.00;102970.50;5001754;28;20179;-83
2023/05/18 03:45:24;;;;;;;6.95;3.15;;;;;;;6.19;100.00;102976.66;4987966;28;20061;-84
2023/05/18 03:48:08;;;;;;;4.60;2.53;;;;;;;6.19;100.00;102966.13;4988277;28;20070;-84
2023/05/18 03:50:52;;;;;;;7.10;2.88;;;;;;;6.21;100.00;102961.78;5001204;28;20377;-83
2023/05/18 03:53:36;;;;;;;3.55;2.78;;;;;;;6.25;100.00;102960.91;4998627;28;22048;-84
2023/05/18 03:56:21;;;;;;;5.15;3.15;;;;;;;6.29;100.00;102972.34;4985628;28;20112;-84
2023/05/18 03:59:10;;;;;;;4.38;2.47;;;;;;;6.31;100.00;102970.63;4985986;28;20162;-84
2023/05/18 04:01:54;;;;;;;6.88;3.30;;;;;;;6.32;100.00;102972.38;5001955;28;20065;-83
2023/05/18 04:04:40;;;;;;;4.53;2.92;;;;;;;6.34;100.00;102971.53;4986683;28;20052;-84
2023/05/18 04:07:24;;;;;;;5.22;3.10;;;;;;;6.35;100.00;102978.53;4985156;28;20044;-84
2023/05/18 04:10:12;;;;;;;4.53;2.63;;;;;;;6.34;100.00;102976.78;4999685;28;20072;-81
2023/05/18 04:12:56;;;;;;;4.78;2.63;;;;;;;6.35;100.00;102973.28;4986420;28;20053;-83
2023/05/18 04:15:40;;;;;;;5.47;2.70;;;;;;;6.38;100.00;102978.53;5002118;28;21985;-84
2023/05/18 04:18:29;;;;;;;4.18;2.83;;;;;;;6.41;100.00;102969.78;4991731;28;20061;-83
2023/05/18 04:21:13;;;;;;;4.28;3.03;;;;;;;6.46;100.00;102980.34;4991038;28;20099;-83
2023/05/18 04:23:58;;;;;;;4.65;3.05;;;;;;;6.48;100.00;102978.63;4988377;28;20053;-83
2023/05/18 04:26:42;;;;;;;3.45;2.65;;;;;;;6.49;100.00;102983.00;5004612;28;20056;-83
2023/05/18 04:29:27;;;;;;;6.97;3.15;;;;;;;6.51;100.00;102986.53;4990587;28;20133;-83
2023/05/18 04:32:11;;;;;;;3.95;2.83;;;;;;;6.52;100.00;102980.38;4993565;28;20528;-84
2023/05/18 04:34:57;;;;;;;6.70;3.03;;;;;;;6.58;100.00;102980.41;4978831;28;20236;-83
2023/05/18 04:37:41;;;;;;;4.93;2.50;;;;;;;6.63;100.00;102985.69;5006458;28;20068;-82
2023/05/18 04:40:26;;;;;;;5.20;2.63;;;;;;;6.66;100.00;102983.97;5001809;28;20044;-83
2023/05/18 04:43:16;;;;;;;4.80;2.65;;;;;;;6.70;100.00;102978.75;4999506;28;20061;-83
2023/05/18 04:46:00;;;;;;;3.70;2.70;;;;;;;6.76;100.00;102991.94;5000767;28;20056;-83
2023/05/18 04:48:48;;;;;;;6.82;2.40;;;;;;;6.78;100.00;102992.81;5000191;28;20585;-83
2023/05/18 04:51:33;;;;;;;4.70;2.17;;;;;;;6.83;100.00;102995.47;5000818;28;20068;-84
2023/05/18 04:54:19;;;;;;;4.18;1.65;;;;;;;6.84;100.00;102997.22;5001401;28;20041;-83
2023/05/18 04:57:04;;;;;;;3.65;1.65;;;;;;;6.89;100.00;103003.38;5001726;28;20964;-85
2023/05/18 04:59:48;;;;;;;4.78;1.75;;;;;;;6.91;100.00;103010.44;5000125;28;20069;-83
2023/05/18 05:02:32;;;;;;;3.72;2.10;;;;;;;6.95;100.00;103010.44;4997970;28;20582;-84
2023/05/18 05:05:16;;;;;;;3.75;1.73;;;;;;;6.97;100.00;103012.19;4984013;28;20056;-84
2023/05/18 05:08:03;;;;;;;2.85;1.63;;;;;;;7.01;100.00;103005.19;4999317;28;20053;-84
2023/05/18 05:10:47;;;;;;;2.65;1.60;;;;;;;7.05;100.00;103017.50;4986719;28;20420;-84
2023/05/18 05:13:33;;;;;;;3.88;1.90;;;;;;;7.09;100.00;103019.28;4985732;28;20049;-84
2023/05/18 05:16:17;;;;;;;6.25;1.67;;;;;;;7.12;100.00;103016.66;4983795;28;20652;-83
2023/05/18 05:19:03;;;;;;;3.08;1.70;;;;;;;7.14;100.00;103025.44;5000240;28;20068;-83
2023/05/18 05:21:50;;;;;;;3.90;1.50;;;;;;;7.19;100.00;103021.06;4971770;28;20104;-84
2023/05/18 05:24:35;;;;;;;3.35;2.13;;;;;;;7.24;100.00;103013.19;4999721;28;20180;-83
2023/05/18 05:27:19;;;;;;;2.33;1.40;;;;;;;7.26;100.00;103014.09;5002325;28;20557;-83
2023/05/18 05:30:04;;;;;;;5.78;2.22;;;;;;;7.30;100.00;103017.63;4983236;28;20377;-83
2023/05/18 05:32:48;;;;;;;7.05;1.60;;;;;;;7.31;100.00;103025.50;4986118;28;20604;-84
2023/05/18 05:35:33;;;;;;;3.55;1.80;;;;;;;7.33;100.00;103020.25;4986905;28;20056;-83
2023/05/18 05:38:17;;;;;;;5.03;1.50;;;;;;;7.32;100.00;103022.00;4985283;28;20049;-83
2023/05/18 05:41:00;;;;;;;3.92;1.85;;;;;;;7.36;100.00;103022.91;4987391;28;20140;-83
2023/05/18 05:43:44;;;;;;;6.63;1.58;;;;;;;7.38;100.00;103026.41;4975720;28;20056;-83
2023/05/18 05:46:28;;;;;;;3.92;1.40;;;;;;;7.40;100.00;103024.66;5003044;28;20064;-82
2023/05/18 05:49:13;;;;;;;3.80;2.00;;;;;;;7.45;100.00;103032.56;5003219;28;20140;-83
2023/05/18 05:51:57;;;;;;;5.95;2.20;;;;;;;7.48;100.00;103032.59;5006006;28;20708;-83
2023/05/18 05:54:44;;;;;;;3.65;1.60;;;;;;;7.52;100.00;103036.97;4989651;28;20155;-83
2023/05/18 05:57:28;;;;;;;5.40;1.27;;;;;;;7.58;100.00;103042.28;5003679;28;20598;-83
2023/05/18 06:00:12;;;;;;;4.10;1.80;;;;;;;7.62;100.00;103035.25;5006147;28;20083;-83
2023/05/18 06:02:57;;;;;;;4.20;1.45;;;;;;;7.68;99.40;103031.75;5006168;28;20048;-83
2023/05/18 06:05:41;;;;;;;3.90;1.58;;;;;;;7.75;98.93;103037.03;4978845;28;20165;-82
2023/05/18 06:08:27;;;;;;;4.32;1.50;;;;;;;7.81;97.75;103043.19;5005680;28;20049;-82
2023/05/18 06:11:22;;;;;;;1.88;1.25;;;;;;;7.85;97.59;103048.47;4988801;28;20100;-88
2023/05/18 06:14:11;;;;;;;2.17;1.40;;;;;;;7.93;97.66;103051.13;4991006;28;20060;-88
2023/05/18 06:16:55;;;;;;;6.45;1.70;;;;;;;8.01;97.61;103049.38;4974270;28;20052;-83
2023/05/18 06:19:39;;;;;;;3.45;1.50;;;;;;;8.07;97.24;103043.22;5002077;28;20076;-85
2023/05/18 06:22:24;;;;;;;3.90;1.40;;;;;;;8.14;96.19;103052.03;4992316;28;20056;-84
2023/05/18 06:25:09;;;;;;;1.83;1.40;;;;;;;8.21;95.36;103040.59;5004299;28;20089;-84
2023/05/18 06:27:54;;;;;;;5.32;1.48;;;;;;;8.27;95.32;103051.16;5009836;28;20064;-82
2023/05/18 06:30:37;;;;;;;3.20;1.45;;;;;;;8.36;96.27;103046.72;5000562;28;20069;-83
2023/05/18 06:33:22;;;;;;;2.75;1.27;;;;;;;8.46;95.71;103048.50;5003994;28;20055;-85
2023/05/18 06:36:06;;;;;;;4.82;1.80;;;;;;;8.54;95.85;103044.09;4986308;28;20324;-83
2023/05/18 06:38:51;;;;;;;3.78;1.10;;;;;;;8.63;95.42;103044.97;5002121;28;20053;-83
2023/05/18 06:41:40;;;;;;;3.92;1.17;;;;;;;8.68;94.30;103048.47;4986057;28;21517;-84
2023/05/18 06:44:24;;;;;;;2.97;1.50;;;;;;;8.75;93.06;103051.97;4986473;28;20068;-83
2023/05/18 06:47:20;;;;;;;1.67;1.20;;;;;;;8.81;92.75;103054.59;4993039;28;21198;-84
2023/05/18 06:50:09;;;;;;;4.78;1.25;;;;;;;8.87;91.61;103049.31;5008446;28;20060;-85
2023/05/18 06:52:53;;;;;;;5.82;1.20;;;;;;;8.96;91.50;103061.63;4974959;28;20052;-85
2023/05/18 06:55:37;;;;;;;2.80;1.30;;;;;;;8.98;91.43;103059.84;4989226;28;20421;-85
2023/05/18 06:58:24;;;;;;;3.67;1.35;;;;;;;8.99;90.80;103058.94;4991564;28;20185;-84
2023/05/18 07:01:09;;;;;;;5.40;1.73;;;;;;;9.07;90.86;103059.81;4990715;28;20053;-84
2023/05/18 07:04:01;;;;;;;3.22;1.25;;;;;;;9.17;90.10;103049.22;4994419;28;20135;-84
2023/05/18 07:06:45;;;;;;;2.45;1.10;;;;;;;9.30;90.70;103053.56;4985742;28;20122;-84
2023/05/18 07:09:30;;;;;;;2.08;1.58;;;;;;;9.46;89.94;103051.72;4999277;28;20592;-83
2023/05/18 07:12:14;;;;;;;3.38;1.20;;;;;;;9.53;89.16;103059.63;4985573;28;21150;-84
2023/05/18 07:14:58;;;;;;;5.55;1.90;;;;;;;9.58;89.27;103061.34;4972305;28;20057;-83
2023/05/18 07:17:43;;;;;;;3.90;1.33;;;;;;;9.67;88.34;103060.41;5001672;28;20604;-84
2023/05/18 07:20:28;;;;;;;3.45;1.05;;;;;;;9.77;89.29;103066.53;4998100;28;20064;-84
2023/05/18 07:23:12;;;;;;;3.13;1.23;;;;;;;9.84;87.76;103067.34;5001356;28;20064;-83
2023/05/18 07:25:56;;;;;;;2.80;0.98;;;;;;;9.90;87.89;103062.00;4981557;28;20606;-83
2023/05/18 07:28:40;;;;;;;5.53;1.65;;;;;;;9.99;86.87;103064.63;5000416;28;20507;-83
2023/05/18 07:31:26;;;;;;;2.47;1.42;;;;;;;10.14;87.23;103062.72;4984350;28;20984;-83
2023/05/18 07:34:10;;;;;;;4.57;1.20;;;;;;;10.31;86.81;103062.59;4984012;28;20106;-86
2023/05/18 07:36:54;;;;;;;0.95;0.90;;;;;;;10.50;86.06;103068.63;5000507;28;20129;-83
2023/05/18 07:39:38;;;;;;;2.10;1.10;;;;;;;10.67;85.79;103067.59;5001895;28;20121;-82
2023/05/18 07:42:23;;;;;;;4.47;1.60;;;;;;;10.79;84.92;103069.22;4985643;28;20053;-83
2023/05/18 07:45:16;;;;;;;1.95;1.10;;;;;;;10.93;84.08;103063.75;4985810;28;20048;-82
2023/05/18 07:48:00;;;;;;;4.25;1.40;;;;;;;11.00;83.92;103063.66;4985181;28;20052;-82
2023/05/18 07:50:44;;;;;;;3.38;1.30;;;;;;;11.09;84.18;103060.03;5001280;28;20087;-84
2023/05/18 07:53:28;;;;;;;2.53;1.30;;;;;;;11.19;82.72;103058.16;5000955;28;20675;-83
2023/05/18 07:56:12;;;;;;;3.50;1.08;;;;;;;11.28;83.10;103063.31;4999710;28;20183;-83
2023/05/18 07:58:56;;;;;;;4.35;1.30;;;;;;;11.36;82.53;103070.31;4972053;28;20200;-82
2023/05/18 08:01:44;;;;;;;3.03;1.35;;;;;;;11.38;81.70;103053.47;4986072;28;20507;-85
2023/05/18 08:04:28;;;;;;;4.28;1.52;;;;;;;11.48;83.31;103054.22;4984624;28;20098;-83
2023/05/18 08:07:17;;;;;;;3.00;1.48;;;;;;;11.59;80.02;103053.22;4971720;28;20047;-82
2023/05/18 08:10:01;;;;;;;4.38;1.50;;;;;;;11.62;79.59;103055.81;5000928;28;20129;-83
2023/05/18 08:12:45;;;;;;;3.53;1.27;;;;;;;11.78;81.28;103046.69;4984759;28;20045;-82
2023/05/18 08:15:29;;;;;;;2.58;1.08;;;;;;;12.10;80.56;103041.84;4998332;28;20532;-81
2023/05/18 08:18:13;;;;;;;3.75;1.20;;;;;;;12.48;79.73;103052.69;5000855;28;20562;-80
2023/05/18 08:20:57;;;;;;;3.65;1.13;;;;;;;12.55;76.09;103054.31;4995148;28;20083;-81
2023/05/18 08:23:41;;;;;;;3.80;1.30;;;;;;;12.41;77.70;103057.22;4984203;28;20041;-78
2023/05/18 08:26:25;;;;;;;3.80;1.52;;;;;;;12.31;77.03;103055.66;4998895;28;20053;-82
2023/05/18 08:29:10;;;;;;;5.05;1.40;;;;;;;12.31;77.76;103045.88;4971704;28;20036;-81
2023/05/18 08:31:54;;;;;;;5.78;1.40;;;;;;;12.50;78.21;103050.88;4998305;28;20511;-83
2023/05/18 08:34:38;;;;;;;4.50;1.15;;;;;;;12.55;75.99;103048.13;4978572;28;20040;-82
2023/05/18 08:37:27;;;;;;;4.35;1.38;;;;;;;12.47;76.09;103050.91;4999312;28;21948;-81
2023/05/18 08:40:12;;;;;;;3.60;1.38;;;;;;;12.48;76.63;103052.69;5001042;28;20135;-80
2023/05/18 08:42:56;;;;;;;5.28;1.48;;;;;;;12.57;76.69;103046.31;4985246;28;20555;-81
2023/05/18 08:45:47;;;;;;;1.17;0.95;;;;;;;12.80;77.05;103043.19;4983617;28;20531;-81
2023/05/18 08:48:34;;;;;;;1.98;1.15;;;;;;;13.07;76.01;103040.88;4987135;28;21600;-81
2023/05/18 08:51:20;;;;;;;2.80;1.30;;;;;;;13.39;75.92;103033.09;4985423;28;20056;-80
2023/05/18 08:54:05;;;;;;;3.22;1.40;;;;;;;13.56;75.39;103033.66;4985095;28;20416;-80
2023/05/18 08:56:51;;;;;;;1.98;1.30;;;;;;;13.68;75.41;103039.59;4985760;28;20192;-81
2023/05/18 08:59:40;;;;;;;2.15;1.38;;;;;;;13.77;74.72;103036.72;4983596;28;20145;-81
2023/05/18 09:02:24;;;;;;;3.30;1.48;;;;;;;13.82;74.38;103032.16;4994910;28;20095;-82
2023/05/18 09:05:11;;;;;;;3.83;1.40;;;;;;;13.93;74.68;103039.00;4981181;28;21022;-81
2023/05/18 09:07:55;;;;;;;3.13;1.60;;;;;;;14.06;74.25;103039.56;4985680;28;20040;-81
2023/05/18 09:10:39;;;;;;;4.25;1.40;;;;;;;14.16;73.08;103038.41;4998958;28;21727;-81
2023/05/18 09:13:23;;;;;;;2.58;1.38;;;;;;;14.18;73.67;103036.59;4985221;28;20065;-81
2023/05/18 09:16:10;;;;;;;2.65;1.50;;;;;;;14.20;72.11;103040.09;4996378;28;20551;-81
2023/05/18 09:18:56;;;;;;;2.28;1.40;;;;;;;14.02;71.09;103040.56;5001720;28;20060;-82
2023/05/18 09:21:40;;;;;;;2.53;1.55;;;;;;;13.88;70.86;103031.13;5004349;28;20092;-81
2023/05/18 09:24:25;;;;;;;5.10;1.63;;;;;;;13.79;72.12;103034.88;5002792;28;20057;-82
2023/05/18 09:27:10;;;;;;;3.25;1.55;;;;;;;13.73;71.61;103036.81;5000818;28;20852;-81
2023/05/18 09:29:55;;;;;;;2.33;1.35;;;;;;;13.74;70.18;103035.91;4988268;28;20539;-81
2023/05/18 09:32:39;;;;;;;1.70;1.20;;;;;;;13.65;71.54;103037.00;4989151;28;20610;-82
2023/05/18 09:35:24;;;;;;;3.97;1.25;;;;;;;13.44;70.84;103031.22;5003228;28;20135;-81
2023/05/18 09:38:08;;;;;;;2.47;1.60;;;;;;;13.18;70.55;103036.22;4989037;28;20188;-81
2023/05/18 09:40:53;;;;;;;5.28;1.50;;;;;;;13.06;70.23;103039.13;5002204;28;20407;-81
2023/05/18 09:43:38;;;;;;;3.75;1.50;;;;;;;13.18;71.17;103040.66;5002301;28;20044;-81
2023/05/18 09:46:22;;;;;;;2.50;1.65;;;;;;;13.17;70.18;103036.25;4990586;28;20048;-82
2023/05/18 09:49:06;;;;;;;2.35;1.40;;;;;;;13.18;70.07;103032.69;5002432;28;20057;-80
2023/05/18 09:51:52;;;;;;;3.80;1.55;;;;;;;13.17;69.78;103029.16;5002120;28;20099;-81
2023/05/18 09:54:36;;;;;;;2.50;1.55;;;;;;;13.17;70.51;103026.50;4974534;28;20544;-82
2023/05/18 09:57:23;;;;;;;2.65;1.50;;;;;;;13.06;68.30;103023.19;5003198;28;20183;-81
2023/05/18 10:00:11;;;;;;;3.42;1.60;;;;;;;13.14;70.25;103023.88;4986312;28;20060;-81
2023/05/18 10:02:55;;;;;;;2.17;1.52;;;;;;;13.15;68.10;103014.13;5001483;28;20123;-81
2023/05/18 10:05:40;;;;;;;3.65;1.77;;;;;;;13.17;68.36;103023.84;5001564;28;20580;-80
2023/05/18 10:08:24;;;;;;;4.20;1.75;;;;;;;13.21;67.84;103011.34;5000892;28;20558;-81
2023/05/18 10:11:08;;;;;;;5.15;1.23;;;;;;;13.22;67.30;103012.22;5002490;28;20261;-81
2023/05/18 10:13:54;;;;;;;6.05;1.85;;;;;;;13.25;68.37;103007.69;4972530;28;20060;-80
2023/05/18 10:16:39;;;;;;;5.35;1.70;;;;;;;13.39;68.78;103011.81;4987487;28;20085;-80
2023/05/18 10:19:24;;;;;;;3.72;1.70;;;;;;;13.48;67.66;103019.66;4986852;28;20091;-82
2023/05/18 10:22:08;;;;;;;3.72;1.75;;;;;;;13.44;66.92;103013.50;4996564;28;20076;-81
2023/05/18 10:24:52;;;;;;;3.42;1.80;;;;;;;13.29;67.67;103019.16;4959564;28;20087;-81
2023/05/18 10:27:38;;;;;;;4.20;1.65;;;;;;;13.27;67.51;103002.34;5000115;28;20060;-82
2023/05/18 10:30:22;;;;;;;4.28;1.80;;;;;;;13.12;67.02;103001.78;4999792;28;20512;-82
2023/05/18 10:33:07;;;;;;;3.75;1.58;;;;;;;13.20;67.47;102998.06;5001055;28;20040;-82
2023/05/18 10:35:54;;;;;;;3.97;1.63;;;;;;;13.20;67.95;102998.06;4988758;28;20107;-82
2023/05/18 10:38:39;;;;;;;2.95;1.75;;;;;;;13.16;67.46;102998.16;5002636;28;20049;-81
2023/05/18 10:41:23;;;;;;;4.68;1.65;;;;;;;13.10;67.45;102998.28;4987817;28;20107;-81
2023/05/18 10:44:08;;;;;;;2.58;1.67;;;;;;;13.22;68.46;102998.91;5000377;28;20155;-81
2023/05/18 10:46:53;;;;;;;3.50;1.60;;;;;;;13.35;66.98;102995.06;4987093;28;20049;-82
2023/05/18 10:49:37;;;;;;;5.25;1.80;;;;;;;13.41;66.95;103002.03;4986724;28;20375;-82
2023/05/18 10:52:22;;;;;;;2.40;1.52;;;;;;;13.45;66.53;103003.69;4999454;28;20056;-81
2023/05/18 10:55:09;;;;;;;2.88;1.60;;;;;;;13.56;67.08;102995.50;5001306;28;20527;-81
2023/05/18 10:58:03;;;;;;;3.47;1.70;;;;;;;13.40;63.23;102989.66;5000774;28;20656;-81
2023/05/18 11:00:50;;;;;;;4.80;2.00;;;;;;;13.33;65.79;102988.91;4986082;28;20052;-82
2023/05/18 11:03:34;;;;;;;3.38;1.60;;;;;;;13.41;65.40;102994.91;4996921;28;20140;-81
2023/05/18 11:06:22;;;;;;;2.92;1.70;;;;;;;13.52;66.05;102994.69;4998840;28;20080;-81
2023/05/18 11:09:07;;;;;;;4.38;1.80;;;;;;;13.68;66.79;102997.88;5001416;28;20071;-81
2023/05/18 11:11:54;;;;;;;2.70;1.65;;;;;;;13.82;66.31;103001.97;5002662;28;20153;-81
2023/05/18 11:14:53;;;;;;;2.72;1.50;;;;;;;14.01;63.41;102994.44;4988308;28;20099;-86
2023/05/18 11:17:37;;;;;;;4.40;2.00;;;;;;;14.02;65.02;102992.63;4987137;28;20100;-82
2023/05/18 11:20:24;;;;;;;3.17;1.50;;;;;;;13.94;63.68;102999.00;4986144;28;20122;-81
2023/05/18 11:23:08;;;;;;;3.75;1.85;;;;;;;13.81;65.07;102995.81;5001844;28;20041;-83
2023/05/18 11:25:53;;;;;;;3.30;1.83;;;;;;;13.80;65.25;102993.16;4986758;28;20048;-82
2023/05/18 11:28:43;;;;;;;5.30;1.65;;;;;;;13.87;65.40;102991.22;5000228;28;20600;-82
2023/05/18 11:31:48;;;;;;;2.28;1.40;;;;;;;14.08;63.51;102981.81;4986183;28;20126;-80
2023/05/18 11:34:46;;;;;;;2.63;1.58;;;;;;;14.01;62.00;102990.88;4984449;28;20120;-84
2023/05/18 11:37:43;;;;;;;1.85;1.58;;;;;;;13.85;63.54;102985.94;4986701;28;20177;-82
2023/05/18 11:40:45;;;;;;;6.15;1.80;;;;;;;13.82;65.25;102986.91;5002634;28;20519;-81
2023/05/18 11:43:30;;;;;;;3.03;1.77;;;;;;;13.70;65.64;102982.75;5000653;28;20132;-83
2023/05/18 11:46:17;;;;;;;5.53;1.65;;;;;;;13.61;64.41;102982.97;4984234;28;20084;-82
2023/05/18 11:49:03;;;;;;;2.75;1.85;;;;;;;13.64;65.91;102980.25;4986256;28;22067;-82
2023/05/18 11:52:01;;;;;;;6.70;2.28;;;;;;;13.72;64.80;102980.03;4999650;28;20133;-82
2023/05/18 11:54:55;;;;;;;4.32;1.85;;;;;;;13.66;64.85;102980.19;4986318;28;20056;-82
2023/05/18 11:57:41;;;;;;;3.17;1.80;;;;;;;13.68;65.66;102968.59;4984242;28;20092;-83
2023/05/18 12:00:25;;;;;;;2.67;1.80;;;;;;;13.65;65.26;102974.00;4986171;28;20143;-83
2023/05/18 12:03:09;;;;;;;3.45;2.25;;;;;;;13.53;64.93;102968.97;4986302;28;20057;-83
2023/05/18 12:05:56;;;;;;;2.67;1.70;;;;;;;13.43;65.25;102963.84;4971417;28;20586;-82
2023/05/18 12:08:42;;;;;;;3.47;2.20;;;;;;;13.44;66.25;102965.59;4983730;28;20519;-80
2023/05/18 12:11:27;;;;;;;4.35;1.98;;;;;;;13.46;65.66;102956.72;4981232;28;20049;-81
2023/05/18 12:14:17;;;;;;;4.20;1.73;;;;;;;13.49;65.43;102960.19;4985147;28;20057;-82
2023/05/18 12:17:04;;;;;;;3.50;1.80;;;;;;;13.50;66.58;102956.63;4985464;28;20128;-82
2023/05/18 12:19:48;;;;;;;4.60;2.20;;;;;;;13.63;66.49;102957.22;4999612;28;20060;-82
2023/05/18 12:22:32;;;;;;;4.78;2.05;;;;;;;13.67;66.89;102953.53;4997914;28;20060;-82
2023/05/18 12:25:22;;;;;;;3.90;2.08;;;;;;;13.60;66.68;102949.28;4995990;28;20145;-82
2023/05/18 12:28:07;;;;;;;5.05;2.20;;;;;;;13.49;67.47;102954.88;4999365;28;20044;-82
2023/05/18 12:30:55;;;;;;;3.67;1.90;;;;;;;13.51;67.49;102954.84;4984486;28;20059;-84
2023/05/18 12:33:39;;;;;;;3.45;1.88;;;;;;;13.43;67.42;102949.66;4984573;28;20163;-82
2023/05/18 12:36:24;;;;;;;3.40;1.88;;;;;;;13.53;68.11;102947.69;4999626;28;20151;-81
2023/05/18 12:39:13;;;;;;;5.03;1.90;;;;;;;13.62;67.54;102944.78;4984897;28;20045;-81
2023/05/18 12:42:12;;;;;;;6.85;2.38;;;;;;;13.64;67.94;102950.97;4999787;28;20052;-83
2023/05/18 12:44:56;;;;;;;3.72;2.00;;;;;;;13.73;68.30;102949.84;4985465;28;20049;-83
2023/05/18 12:47:41;;;;;;;3.10;2.10;;;;;;;13.81;67.87;102947.00;4973460;28;20057;-83
2023/05/18 12:50:25;;;;;;;3.60;2.55;;;;;;;13.87;68.00;102944.19;4998531;28;20072;-84
2023/05/18 12:53:09;;;;;;;3.40;1.92;;;;;;;13.96;68.29;102940.41;4983610;28;20048;-82